Tiempo atmosférico en la estación meteorológica de Pollença Aeródromo, Illes Balears (2 m.)



Fecha
DESCASC
Temp. máxima en grados centígrados (hora)
DESCASC
Temp. mínima en grados centígrados (hora)
DESCASC
Temp. media en grados centígrados
DESCASC
Racha de viento máxima en m/sg (hora)
DESCASC
Velocidad máxima media en intervalos de 10 minutos(hora)
DESCASC
Precipitaciones diarias en mm
DESCASC
Precipitaciones de 00:00 a 06:00 en mm
DESCASC
Precipitaciones de 06:00 a 12:00 en mm
DESCASC
Precipitaciones de 12:00 a 18:00 en mm
DESCASC
Precipitaciones de 18:00 a 24:00 en mm
DESCASC

Gráficas

Temp. máximas Temp. mínimas Temp. medias Precipitaciones Rachas de viento máximas Velocidades máximas media en intervalos de 10 minutos

Datos horarios

Fecha y hora oficial Temperatura (ºC) Velocidad del viento (km/h) Dirección del viento Racha (km/h) Dirección de racha Precipitación (mm) Presión (hPa) Tendencia (hPa) Humedad (%)
2020-04-09 23:00:00 13.4 0 Calma 10 Este 0 -- -- 75
2020-04-09 22:00:00 15.8 5 Nordeste 12 Este 0 -- -- 71
2020-04-09 21:00:00 16.1 4 Nordeste 18 Nordeste 0 -- -- 84
2020-04-09 20:00:00 16.9 6 Nordeste 23 Este 0 -- -- 76
2020-04-09 19:00:00 18.3 9 Nordeste 26 Este 0 -- -- 68
2020-04-09 18:00:00 19.4 13 Nordeste 25 Norte 0 -- -- 63
2020-04-09 17:00:00 20.4 12 Este 26 Nordeste 0 -- -- 53
2020-04-09 16:00:00 21.3 6 Nordeste 20 Sudeste 0 -- -- 42
2020-04-09 15:00:00 21.1 6 Este 19 Este 0 -- -- 48
2020-04-09 14:00:00 20.3 8 Este 24 Este 0 -- -- 58
2020-04-09 13:00:00 21 6 Este 19 Sudeste 0 -- -- 45
2020-04-09 12:00:00 20.8 8 Este 14 Este 0 -- -- 46
2020-04-09 11:00:00 18.6 4 Sur 6 Sur 0 -- -- 62
2020-04-09 10:00:00 16.6 3 Sur 5 Sudoeste 0 -- -- 68
2020-04-09 09:00:00 11.8 0 Calma 2 Noroeste 0 -- -- 95
2020-04-09 08:00:00 10.5 2 Norte 4 Norte 0 -- -- 96
2020-04-09 07:00:00 11 0 Calma 3 Norte 0 -- -- 95
2020-04-09 06:00:00 11.3 0 Calma 3 Norte 0 -- -- 91
2020-04-09 05:00:00 11.3 0 Calma 5 Norte 0 -- -- 92
2020-04-09 04:00:00 12.2 2 Norte 4 Norte 0 -- -- 94
2020-04-09 03:00:00 12.4 2 Norte 3 Norte 0 -- -- 94
2020-04-09 02:00:00 12.5 2 Norte 4 Nordeste 0 -- -- 93
2020-04-09 01:00:00 12.9 2 Norte 3 Nordeste 0 -- -- 89
2020-04-09 00:00:00 14.3 0 Calma 4 Sur 0 -- -- 85
2020-04-08 23:00:00 15.5 3 Sur 6 Sur 0 -- -- 79
2020-04-08 22:00:00 16.1 5 Sudoeste 14 Sur 0 -- -- 75
2020-04-08 21:00:00 16.7 9 Sudeste 14 Sudeste 0 -- -- 74
2020-04-08 20:00:00 17.4 4 Sudeste 17 Este 0 -- -- 61
2020-04-08 19:00:00 18.1 5 Este 22 Nordeste 0 -- -- 71
2020-04-08 18:00:00 18.1 8 Nordeste 29 Este 0 -- -- 77
2020-04-08 17:00:00 19.1 7 Nordeste 27 Nordeste 0 -- -- 71
2020-04-08 16:00:00 19.6 11 Este 23 Nordeste 0 -- -- 68
2020-04-08 15:00:00 18.8 13 Este 24 Este 0 -- -- 74
2020-04-08 14:00:00 17.8 12 Este 22 Este 0 -- -- 78
2020-04-08 13:00:00 18.4 5 Este 16 Este 0 -- -- 74
2020-04-08 12:00:00 18.6 5 Este 14 Este 0 -- -- 73
2020-04-08 11:00:00 19.4 5 Sur 11 Sur 0 -- -- 67
2020-04-08 10:00:00 15.6 3 Sudoeste 6 Sudoeste 0 -- -- 75
2020-04-08 09:00:00 13.1 4 Este 7 Este 0 -- -- 86
2020-04-08 08:00:00 9.9 0 Calma 3 Norte 0 -- -- 91
2020-04-08 07:00:00 9 0 Calma 3 Noroeste 0 -- -- 88
2020-04-08 06:00:00 10 0 Calma 3 Nordeste 0 -- -- 82
2020-04-08 05:00:00 11 0 Calma 4 Nordeste 0 -- -- 83
2020-04-08 04:00:00 11.3 2 Norte 3 Norte 0 -- -- 86
2020-04-08 03:00:00 11.4 0 Calma 3 Norte 0 -- -- 88
2020-04-08 02:00:00 11.2 0 Calma 3 Nordeste 0 -- -- 88
2020-04-08 01:00:00 11.3 2 Norte 3 Norte 0 -- -- 86
2020-04-08 00:00:00 11.9 0 Calma 3 Norte 0 -- -- 85
2020-04-07 23:00:00 13 0 Calma 8 Sur 0 -- -- 79
2020-04-07 22:00:00 14.9 4 Sudeste 12 Este 0 -- -- 70
2020-04-07 21:00:00 15.2 4 Nordeste 18 Este 0 -- -- 68
2020-04-07 20:00:00 15.8 6 Nordeste 21 Nordeste 0 -- -- 66
2020-04-07 19:00:00 17 7 Norte 24 Nordeste 0 -- -- 63
2020-04-07 18:00:00 17.6 10 Norte 29 Nordeste 0 -- -- 63
2020-04-07 17:00:00 17.8 10 Nordeste 26 Nordeste 0 -- -- 64
2020-04-07 16:00:00 18.7 12 Nordeste 27 Norte 0 -- -- 58
2020-04-07 15:00:00 17.7 9 Nordeste 24 Nordeste 0 -- -- 60
2020-04-07 14:00:00 18.7 8 Norte 22 Nordeste 0 -- -- 62
2020-04-07 13:00:00 18.8 9 Norte 18 Este 0 -- -- 65
2020-04-07 12:00:00 18.4 4 Este 14 Sudeste 0 -- -- 68
2020-04-07 11:00:00 18 5 Sudeste 12 Sudeste 0 -- -- 71
2020-04-07 10:00:00 14.7 0 Calma -- -- 0 -- -- 69
2020-04-07 09:00:00 11.4 0 Calma -- -- 0 -- -- 93
2020-04-07 08:00:00 9.2 0 Calma -- -- 0 -- -- 95
2020-04-07 07:00:00 9 0 Calma -- -- 0 -- -- 93
2020-04-07 06:00:00 9 0 Calma 3 Norte 0 -- -- 91
2020-04-07 05:00:00 9.3 0 Calma 4 Norte 0 -- -- 91
2020-04-07 04:00:00 9.1 0 Calma 3 Norte 0 -- -- 91
2020-04-07 03:00:00 9.2 0 Calma 4 Norte 0 -- -- 90
2020-04-07 02:00:00 9.4 3 Norte 5 Norte 0 -- -- 90
2020-04-07 01:00:00 10 0 Calma 5 Este 0 -- -- 87
2020-04-07 00:00:00 10.6 0 Calma 4 Norte 0 -- -- 82
2020-04-06 23:00:00 11.7 2 Norte 9 Sudoeste 0 -- -- 78
2020-04-06 22:00:00 14.8 4 Sur 15 Sur 0 -- -- 66
2020-04-06 21:00:00 15.8 9 Sur 16 Sur 0 -- -- 66
2020-04-06 20:00:00 16.9 11 Sur 18 Sudeste 0 -- -- 64
2020-04-06 19:00:00 18.4 7 Norte 15 Norte 0 -- -- 52
2020-04-06 18:00:00 19.2 6 Norte 18 Norte 0 -- -- 52
2020-04-06 17:00:00 19.6 10 Norte 18 Norte 0 -- -- 51
2020-04-06 16:00:00 20.4 10 Norte 18 Norte 0 -- -- 45
2020-04-06 15:00:00 20.6 6 Nordeste 22 Este 0 -- -- 49
2020-04-06 14:00:00 19 10 Nordeste 22 Norte 0 -- -- 62
2020-04-06 13:00:00 19.3 8 Este 18 Este 0 -- -- 61
2020-04-06 12:00:00 19.8 6 Este 14 Sudeste 0 -- -- 59
2020-04-06 11:00:00 18.6 7 Sudeste 12 Sudeste 0 -- -- 66
2020-04-06 10:00:00 15 2 Sudeste 5 Sur 0 -- -- 78
2020-04-06 09:00:00 9.6 2 Norte -- -- 0 -- -- 100
2020-04-06 08:00:00 6.9 0 Calma 5 Norte 0 -- -- 100
2020-04-06 07:00:00 7 3 Norte 4 Norte 0 -- -- 100
2020-04-06 06:00:00 7.6 0 Calma 5 Norte 0 -- -- 100
2020-04-06 05:00:00 7.7 0 Calma -- -- 0 -- -- 99
2020-04-06 04:00:00 8.7 0 Calma 2 Noroeste 0 -- -- 96
2020-04-06 03:00:00 9.6 0 Calma 3 Noroeste 0 -- -- 95
2020-04-06 02:00:00 9.8 0 Calma 4 Norte 0 -- -- 95
2020-04-06 01:00:00 9.8 2 Norte 3 Norte 0 -- -- 94
2020-04-06 00:00:00 10.6 2 Norte 4 Norte 0 -- -- 91
2020-04-05 23:00:00 11.6 0 Calma 7 Este 0 -- -- 86
2020-04-05 22:00:00 13.4 3 Este 13 Nordeste 0 -- -- 78
2020-04-05 21:00:00 14.5 5 Nordeste 12 Nordeste 0 -- -- 72
2020-04-05 20:00:00 15.2 3 Nordeste 18 Este 0 -- -- 72
2020-04-05 19:00:00 15.9 10 Nordeste 23 Nordeste 0 -- -- 68
2020-04-05 18:00:00 17 10 Nordeste 24 Este 0 -- -- 63
2020-04-05 17:00:00 17.7 11 Nordeste 29 Norte 0 -- -- 63
2020-04-05 16:00:00 17.5 11 Nordeste 25 Norte 0 -- -- 64
2020-04-05 15:00:00 18.5 6 Este 24 Este 0 -- -- 59
2020-04-05 14:00:00 18.3 8 Este 17 Este 0 -- -- 62
2020-04-05 13:00:00 18.4 7 Este 18 Sudeste 0 -- -- 55
2020-04-05 12:00:00 17.6 5 Este 13 Este 0 -- -- 66
2020-04-05 11:00:00 17.3 3 Este 10 Este 0 -- -- 70
2020-04-05 10:00:00 13.8 2 Sur 4 Sur 0 -- -- 86
2020-04-05 09:00:00 9 0 Calma -- -- 0 -- -- 100
2020-04-05 08:00:00 5.8 0 Calma -- -- 0 -- -- 100
2020-04-05 07:00:00 5.9 0 Calma -- -- 0 -- -- 100
2020-04-05 06:00:00 6.2 0 Calma 3 Norte 0 -- -- 100
2020-04-05 05:00:00 6.5 0 Calma 3 Norte 0 -- -- 100
2020-04-05 04:00:00 7 0 Calma 3 Norte 0 -- -- 100
2020-04-05 03:00:00 7.5 0 Calma 4 Norte 0 -- -- 100
2020-04-05 02:00:00 7.8 2 Norte 3 Norte 0 -- -- 100
2020-04-05 01:00:00 8.5 2 Noroeste 4 Norte 0 -- -- 97
2020-04-05 00:00:00 9.4 2 Norte 4 Norte 0 -- -- 93
2020-04-04 23:00:00 10.6 2 Norte 9 Este 0 -- -- 89
2020-04-04 22:00:00 12.3 3 Nordeste 8 Nordeste 0 -- -- 83
2020-04-04 21:00:00 14.3 4 Nordeste 14 Este 0 -- -- 73
2020-04-04 20:00:00 15.3 5 Nordeste 15 Nordeste 0 -- -- 65
2020-04-04 19:00:00 16.8 6 Este 18 Este 0 -- -- 60
2020-04-04 18:00:00 17.9 7 Nordeste 22 Nordeste 0 -- -- 59
2020-04-04 17:00:00 18.3 8 Este 20 Este 0 -- -- 59
2020-04-04 16:00:00 18.7 8 Este 21 Este 0 -- -- 55
2020-04-04 15:00:00 18.7 8 Este 21 Este 0 -- -- 58
2020-04-04 14:00:00 19.1 8 Este 18 Sudeste 0 -- -- 51
2020-04-04 13:00:00 18.6 9 Norte 20 Norte 0 -- -- 59
2020-04-04 12:00:00 18.6 7 Norte 16 Nordeste 0 -- -- 61
2020-04-04 11:00:00 17.8 6 Sudeste 10 Sudeste 0 -- -- 71
2020-04-04 10:00:00 13.3 0 Calma 8 Sur 0 -- -- 82
2020-04-04 09:00:00 9 0 Calma 4 Norte 0 -- -- 100
2020-04-04 08:00:00 6.8 2 Norte 5 Norte 0 -- -- 100
2020-04-04 07:00:00 7 0 Calma 4 Norte 0 -- -- 100
2020-04-04 06:00:00 7.1 0 Calma 5 Norte 0 -- -- 100
2020-04-04 05:00:00 6.8 0 Calma 4 Norte 0 -- -- 100
2020-04-04 04:00:00 6.5 0 Calma -- -- 0 -- -- 100
2020-04-04 03:00:00 6.9 0 Calma -- -- 0 -- -- 100
2020-04-04 02:00:00 7.4 0 Calma 4 Norte 0 -- -- 100
2020-04-04 01:00:00 7.8 0 Calma 5 Norte 0 -- -- 100
2020-04-04 00:00:00 8.2 0 Calma 3 Noroeste 0 -- -- 98
2020-04-03 23:00:00 8.9 2 Norte 3 Norte 0 -- -- 95
2020-04-03 22:00:00 10.1 0 Calma 4 Norte 0 -- -- 91
2020-04-03 21:00:00 11.7 2 Norte 7 Norte 0 -- -- 85
2020-04-03 20:00:00 13.7 2 Norte 12 Norte 0 -- -- 74
2020-04-03 19:00:00 15.4 4 Norte 15 Norte 0 -- -- 67
2020-04-03 18:00:00 16.4 7 Norte 17 Norte 0 -- -- 64
2020-04-03 17:00:00 16.6 10 Norte 23 Norte 0 -- -- 68
2020-04-03 16:00:00 16.3 12 Norte 31 Norte 0 -- -- 66
2020-04-03 15:00:00 16.5 15 Norte 38 Norte 0 -- -- 70
2020-04-03 14:00:00 15.8 17 Norte 35 Norte 0 -- -- 71
2020-04-03 13:00:00 14.9 14 Norte 36 Norte 0 -- -- 75
2020-04-03 12:00:00 14.9 13 Norte 36 Nordeste 0 -- -- 73
2020-04-03 11:00:00 14.5 15 Norte 39 Norte 0 -- -- 71
2020-04-03 10:00:00 14.4 13 Nordeste 32 Norte 0 -- -- 72
2020-04-03 09:00:00 13.8 9 Norte 28 Norte 0 -- -- 75
2020-04-03 08:00:00 13.3 8 Norte 31 Nordeste 0 -- -- 76
2020-04-03 07:00:00 13.2 11 Norte 34 Nordeste 0 -- -- 76
2020-04-03 06:00:00 13 11 Norte 39 Norte 0 -- -- 81
2020-04-03 05:00:00 12.9 13 Norte 37 Noroeste 0 -- -- 91
2020-04-03 04:00:00 12.7 11 Norte 35 Norte 0 -- -- 94
2020-04-03 03:00:00 12.3 12 Norte 39 Norte 0.4 -- -- 100
2020-04-03 02:00:00 12 18 Norte 42 Nordeste 2.8 -- -- 100
2020-04-03 01:00:00 12.6 15 Norte 36 Norte 0 -- -- 93
2020-04-03 00:00:00 12.7 17 Norte 33 Norte 0 -- -- 90
2020-04-02 23:00:00 12.6 11 Nordeste 33 Nordeste 0 -- -- 95
2020-04-02 22:00:00 12.9 18 Nordeste 38 Norte 0 -- -- 95
2020-04-02 21:00:00 13 16 Nordeste 36 Norte 0.2 -- -- 100
2020-04-02 20:00:00 13.1 12 Nordeste 31 Norte 0.4 -- -- 100
2020-04-02 19:00:00 13.4 12 Norte 26 Norte 0 -- -- 97
2020-04-02 18:00:00 13.6 12 Nordeste 24 Norte 0 -- -- 100
2020-04-02 17:00:00 13.8 9 Nordeste 19 Norte 0.2 -- -- 100
2020-04-02 16:00:00 12.9 7 Norte 25 Este 11.8 -- -- 100
2020-04-02 15:00:00 16.2 3 Nordeste 16 Sur 0.2 -- -- 90
2020-04-02 14:00:00 15.9 4 Nordeste 19 Norte 2.2 -- -- 95
2020-04-02 13:00:00 17.1 8 Norte 21 Norte 0 -- -- 81
2020-04-02 12:00:00 18.2 9 Norte 20 Norte 0 -- -- 79
2020-04-02 11:00:00 18.7 8 Sudeste 14 Sudeste 0 -- -- 94
2020-04-02 10:00:00 14 2 Este 6 Oeste 0 -- -- 100
2020-04-02 09:00:00 12.7 0 Calma 8 Sur 0 -- -- 100
2020-04-02 08:00:00 11.9 2 Este 6 Sudeste 0 -- -- 100
2020-04-02 07:00:00 11.6 2 Norte 4 Norte 0 -- -- 100
2020-04-02 06:00:00 11.8 2 Norte 4 Norte 0 -- -- 100
2020-04-02 05:00:00 12 0 Calma 4 Sudoeste 0 -- -- 100
2020-04-02 04:00:00 11.5 0 Calma 5 Sudeste 0 -- -- 100
2020-04-02 03:00:00 12.3 2 Sudoeste 8 Sudeste 0 -- -- 100
2020-04-02 02:00:00 12.5 4 Norte 9 Sudeste 0 -- -- 100
2020-04-02 01:00:00 13 3 Sur 8 Sudeste 0 -- -- 100
2020-04-02 00:00:00 13.1 3 Sur 9 Sur 0 -- -- 100
2020-04-01 23:00:00 12.8 0 Calma 13 Sur 0 -- -- 99
2020-04-01 22:00:00 15 7 Sur 15 Sur 0 -- -- 94
2020-04-01 21:00:00 15.4 11 Sur 19 Sur 0 -- -- 93
2020-04-01 20:00:00 16.4 12 Sur 19 Sur 0 -- -- 89
2020-04-01 19:00:00 17.1 0 Calma 9 Este 0 -- -- 86
2020-04-01 18:00:00 17.1 2 Sudeste 9 Oeste 0.2 -- -- 93
2020-04-01 17:00:00 15.7 3 Noroeste 16 Norte 1.6 -- -- 92
2020-04-01 16:00:00 17.4 5 Noroeste 14 Oeste 0 -- -- 79
2020-04-01 15:00:00 17.4 6 Sur 27 Nordeste 0.4 -- -- 100
2020-04-01 14:00:00 15.7 12 Norte 32 Norte 0 -- -- 97
2020-04-01 13:00:00 18.5 12 Sudeste 36 Sudeste 0 -- -- 82
2020-04-01 12:00:00 16.4 10 Sur 35 Sudeste 0 -- -- 90
2020-04-01 11:00:00 15.8 15 Sudeste 39 Sudeste 0 -- -- 89
2020-04-01 10:00:00 15.3 10 Este 37 Sudeste 0 -- -- 90
2020-04-01 09:00:00 15.4 12 Sur 43 Sur 0 -- -- 92
2020-04-01 08:00:00 14.9 9 Sudoeste 36 Sudeste 0 -- -- 94
2020-04-01 07:00:00 14.9 19 Sudeste 36 Sudeste 0 -- -- 92
2020-04-01 06:00:00 14.8 15 Sudeste 36 Sudeste 0 -- -- 89
2020-04-01 05:00:00 14.9 18 Sudeste 39 Sudeste 0 -- -- 88
2020-04-01 04:00:00 14.9 20 Sudeste 42 Este 0 -- -- 90
2020-04-01 03:00:00 14.9 17 Sur 42 Sudeste 0 -- -- 88
2020-04-01 02:00:00 15 20 Sudeste 43 Sudeste 0 -- -- 87
2020-04-01 01:00:00 15 22 Sudeste 42 Sudeste 0 -- -- 91
2020-04-01 00:00:00 14.7 11 Sur 31 Sudeste 0 -- -- 92
2020-03-31 23:00:00 14.6 9 Sudoeste 25 Sudoeste 0 -- -- 94
2020-03-31 22:00:00 14.5 7 Oeste 30 Sudoeste 0 -- -- 94
2020-03-31 21:00:00 14.6 9 Oeste 32 Sudeste 0.2 -- -- 96
2020-03-31 20:00:00 14.7 9 Oeste 39 Norte 0 -- -- 96
2020-03-31 19:00:00 14.4 20 Norte 45 Norte 0 -- -- 100
2020-03-31 18:00:00 14.9 13 Norte 32 Nordeste 1.6 -- -- 100
2020-03-31 17:00:00 14.2 5 Noroeste 32 Este 4.4 -- -- 100
2020-03-31 16:00:00 14.9 10 Nordeste 32 Nordeste 0.8 -- -- 93
2020-03-31 15:00:00 15.4 9 Sur 36 Sudeste 0 -- -- 89
2020-03-31 14:00:00 15.5 16 Sur 40 Sudeste 0 -- -- 88
2020-03-31 13:00:00 15.7 18 Sur 45 Este 0 -- -- 85
2020-03-31 12:00:00 15.4 16 Sur 41 Sudeste 0 -- -- 85
2020-03-31 11:00:00 15.6 20 Sudeste 44 Sudeste 0 -- -- 83
2020-03-31 10:00:00 14.5 8 Sudoeste 32 Norte 0 -- -- 89
2020-03-31 09:00:00 14.1 7 Sudoeste 31 Norte 0 -- -- 91
2020-03-31 08:00:00 13.9 8 Noroeste 37 Nordeste 0 -- -- 92
2020-03-31 07:00:00 13.9 17 Norte 42 Nordeste 0 -- -- 92
2020-03-31 06:00:00 13.9 19 Nordeste 40 Nordeste 0 -- -- 95
2020-03-31 05:00:00 13.9 11 Nordeste 32 Norte 0 -- -- 98
2020-03-31 04:00:00 14.3 8 Norte 25 Sudeste 0 -- -- 95
2020-03-31 03:00:00 13.6 5 Sudoeste 21 Sudeste 0 -- -- 100
2020-03-31 02:00:00 11.8 0 Calma -- -- 0 -- -- 100
2020-03-31 01:00:00 11.5 2 Norte 3 Norte 0 -- -- 100
2020-03-31 00:00:00 12.1 2 Norte 3 Norte 0 -- -- 100
2020-03-30 23:00:00 13.2 0 Calma 12 Sur 0 -- -- 98
2020-03-30 22:00:00 14.4 8 Sudeste 20 Sudeste 0 -- -- 95
2020-03-30 21:00:00 14.9 13 Sudeste 22 Sudeste 0 -- -- 92
2020-03-30 20:00:00 15 4 Nordeste 16 Norte 0 -- -- 87
2020-03-30 19:00:00 15.8 6 Norte 18 Este 0 -- -- 86
2020-03-30 18:00:00 16.7 8 Nordeste 24 Nordeste 0 -- -- 87
2020-03-30 17:00:00 15.1 10 Nordeste 26 Norte 0.2 -- -- 89
2020-03-30 16:00:00 14.7 9 Norte 22 Nordeste 0.4 -- -- 91
2020-03-30 15:00:00 13.8 8 Este 22 Sudeste 1 -- -- 98
2020-03-30 14:00:00 14.1 5 Norte 24 Sudeste 2.4 -- -- 100
2020-03-30 13:00:00 14.3 6 Este 20 Sudeste 1.6 -- -- 97
2020-03-30 12:00:00 14.2 3 Sudeste 9 Sudeste 0 -- -- 93
2020-03-30 11:00:00 12.7 0 Calma 7 Este 0 -- -- 100
2020-03-30 10:00:00 11.5 2 Sudeste 7 Sudeste 0 -- -- 100
2020-03-30 09:00:00 9.1 0 Calma -- -- 0 -- -- 100
2020-03-30 08:00:00 7.6 0 Calma 2 Norte 0 -- -- 100
2020-03-30 07:00:00 7.5 2 Norte 4 Norte 0 -- -- 100
2020-03-30 06:00:00 7.7 0 Calma 5 Norte 0 -- -- 100
2020-03-30 05:00:00 8.3 2 Norte 6 Norte 0 -- -- 100
2020-03-30 04:00:00 8 3 Norte 4 Norte 0 -- -- 100
2020-03-30 03:00:00 8.5 2 Norte 3 Noroeste 0 -- -- 98
2020-03-30 02:00:00 9.2 0 Calma 5 Norte 0 -- -- 98
2020-03-30 01:00:00 9.3 2 Nordeste 4 Norte 0 -- -- 96
2020-03-30 00:00:00 9.6 0 Calma 3 Norte 0 -- -- 92
2020-03-29 23:00:00 10.4 0 Calma 4 Nordeste 0 -- -- 88
2020-03-29 22:00:00 11.1 2 Nordeste 6 Sudoeste 0 -- -- 78
2020-03-29 21:00:00 12.8 2 Norte 4 Norte 0 -- -- 70
2020-03-29 20:00:00 16.2 2 Norte 10 Este 0 -- -- 57
2020-03-29 19:00:00 19 5 Sudeste 19 Sudeste 0 -- -- 50
2020-03-29 18:00:00 19.5 14 Sudeste 21 Sudeste 0 -- -- 50
2020-03-29 17:00:00 20.6 4 Noroeste 19 Norte 0 -- -- 41
2020-03-29 16:00:00 20.7 8 Norte 19 Norte 0 -- -- 41
2020-03-29 15:00:00 21.3 5 Noroeste 22 Norte 0 -- -- 36
2020-03-29 14:00:00 20.7 6 Noroeste 26 Norte 0 -- -- 38
2020-03-29 13:00:00 19.9 7 Noroeste 21 Norte 0 -- -- 43
2020-03-29 12:00:00 19.7 4 Sudeste 9 Sudeste 0 -- -- 60
2020-03-29 11:00:00 14.6 2 Sudeste 9 Sudeste 0 -- -- 80
2020-03-29 10:00:00 12.6 3 Sudeste 5 Sudeste 0 -- -- 83
2020-03-29 09:00:00 9.2 0 Calma 3 Sudeste 0 -- -- 100
2020-03-29 08:00:00 7.9 0 Calma 4 Norte 0 -- -- 100
2020-03-29 07:00:00 9.2 0 Calma 9 Sudoeste 0 -- -- 98
2020-03-29 06:00:00 10.1 0 Calma 5 Sur 0 -- -- 96
2020-03-29 05:00:00 10.9 2 Sudoeste 14 Norte 0 -- -- 94
2020-03-29 03:00:00 10.3 2 Norte 5 Norte 0 -- -- 96
2020-03-29 01:00:00 12.3 0 Calma 14 Sudoeste 0 -- -- 88
2020-03-29 00:00:00 12.7 2 Sudoeste 12 Norte 0 -- -- 87
2020-03-28 23:00:00 12.2 3 Noroeste 9 Norte 0 -- -- 92
2020-03-28 22:00:00 11.7 0 Calma 6 Oeste 0 -- -- 96
2020-03-28 21:00:00 12 0 Calma 10 Norte 0 -- -- 91
2020-03-28 20:00:00 13.2 5 Norte 15 Norte 0 -- -- 85
2020-03-28 19:00:00 13.6 4 Norte 13 Norte 0 -- -- 81
2020-03-28 18:00:00 14.2 6 Norte 16 Norte 0 -- -- 73
2020-03-28 17:00:00 15.1 3 Norte 26 Norte 0 -- -- 73
2020-03-28 16:00:00 14.6 13 Norte 29 Noroeste 0 -- -- 77
2020-03-28 15:00:00 15.5 9 Norte 25 Noroeste 0 -- -- 72
2020-03-28 14:00:00 15.1 11 Norte 26 Norte 0 -- -- 75
2020-03-28 13:00:00 14 10 Norte 26 Noroeste 0 -- -- 80
2020-03-28 12:00:00 14.9 10 Norte 19 Nordeste 0.2 -- -- 76
2020-03-28 11:00:00 12.4 3 Norte 14 Norte 0.4 -- -- 100
2020-03-28 10:00:00 11.7 4 Norte 14 Norte 0.2 -- -- 100
2020-03-28 09:00:00 10.5 2 Norte 8 Norte 4.2 -- -- 100
2020-03-28 08:00:00 10.3 5 Nordeste 22 Nordeste 4.6 -- -- 93
2020-03-28 07:00:00 11.6 10 Norte 30 Norte 0.4 -- -- 82
2020-03-28 06:00:00 11.9 6 Norte 19 Norte 0 -- -- 77
2020-03-28 05:00:00 11.4 5 Norte 15 Norte 0 -- -- 82
2020-03-28 04:00:00 10.8 0 Calma 9 Norte 0 -- -- 93
2020-03-28 03:00:00 11.3 4 Norte 19 Norte 0 -- -- 86
2020-03-28 02:00:00 11.6 5 Norte 19 Norte 0 -- -- 79
2020-03-28 01:00:00 11.4 3 Norte 17 Norte 0 -- -- 77
2020-03-28 00:00:00 11.3 9 Norte 24 Norte 0 -- -- 76
2020-03-27 23:00:00 11.3 9 Norte 20 Norte 0 -- -- 74
2020-03-27 22:00:00 11.2 8 Norte 23 Norte 0 -- -- 72
2020-03-27 21:00:00 11.2 8 Norte 27 Norte 0 -- -- 76
2020-03-27 20:00:00 11.4 10 Norte 27 Nordeste 0 -- -- 78
2020-03-27 19:00:00 11 10 Norte 34 Norte 0 -- -- 77
2020-03-27 18:00:00 13.2 11 Norte 34 Norte 0 -- -- 66
2020-03-27 17:00:00 14.6 7 Norte 27 Norte 0 -- -- 49
2020-03-27 16:00:00 15.3 8 Norte 24 Nordeste 0 -- -- 48
2020-03-27 15:00:00 15.7 11 Norte 23 Norte 0 -- -- 48
2020-03-27 14:00:00 15.6 9 Norte 28 Norte 0 -- -- 50
2020-03-27 13:00:00 15.6 8 Norte 23 Noroeste 0 -- -- 50
2020-03-27 12:00:00 15.3 9 Norte 26 Norte 0 -- -- 50
2020-03-27 11:00:00 14.3 8 Norte 26 Norte 0 -- -- 49
2020-03-27 10:00:00 14 8 Norte 21 Nordeste 0 -- -- 55
2020-03-27 09:00:00 12.6 8 Norte 17 Norte 0 -- -- 58
2020-03-27 08:00:00 6.2 5 Norte 10 Norte 0 -- -- 100
2020-03-27 07:00:00 4.6 3 Norte 6 Norte 0 -- -- 98
2020-03-27 06:00:00 5.2 3 Nordeste 8 Este 0 -- -- 97
2020-03-27 05:00:00 5.9 4 Nordeste 9 Este 0 -- -- 95
2020-03-27 04:00:00 6.1 4 Nordeste 11 Nordeste 0 -- -- 92
2020-03-27 03:00:00 7.1 4 Norte 11 Nordeste 0 -- -- 85
2020-03-27 02:00:00 8.2 5 Norte 21 Norte 0 -- -- 77
2020-03-27 01:00:00 9.7 8 Norte 27 Nordeste 0 -- -- 68
2020-03-27 00:00:00 9.5 8 Norte 25 Nordeste 0 -- -- 74
2020-03-26 23:00:00 9.1 6 Norte 24 Norte 0.4 -- -- 90
2020-03-26 22:00:00 8 3 Norte 22 Nordeste 2.6 -- -- 99
2020-03-26 21:00:00 8.7 10 Nordeste 25 Nordeste 0.8 -- -- 97
2020-03-26 20:00:00 8 5 Norte 19 Nordeste 2.2 -- -- 99
2020-03-26 19:00:00 9.1 8 Norte 18 Nordeste 1.6 -- -- 92
2020-03-26 18:00:00 10.3 2 Oeste 9 Sudoeste 0 -- -- 84
2020-03-26 17:00:00 10.8 6 Sur 17 Sur 0.2 -- -- 80
2020-03-26 16:00:00 10.7 9 Sur 23 Oeste 0.2 -- -- 87
2020-03-26 15:00:00 9.3 7 Noroeste 26 Norte 1.2 -- -- 89
2020-03-26 14:00:00 8.7 4 Noroeste 24 Nordeste 1.4 -- -- 93
2020-03-26 13:00:00 8.7 9 Nordeste 22 Norte 0.8 -- -- 93
2020-03-26 12:00:00 8.7 8 Norte 40 Norte 1.6 -- -- 95
2020-03-26 11:00:00 10.7 13 Norte 27 Norte 0 -- -- 78
2020-03-26 10:00:00 12 0 Calma 8 Sudeste 0 -- -- 71
2020-03-26 09:00:00 10.2 3 Sur 8 Sudoeste 0 -- -- 80
2020-03-26 08:00:00 6.5 0 Calma 4 Norte 0 -- -- 95
2020-03-26 07:00:00 4.7 0 Calma 5 Este 0 -- -- 93
2020-03-26 06:00:00 4.3 2 Este 6 Norte 0 -- -- 92
2020-03-26 05:00:00 4.6 0 Calma 6 Sudoeste 0 -- -- 91
2020-03-26 04:00:00 4.7 2 Este 5 Norte 0 -- -- 92
2020-03-26 03:00:00 5.2 2 Norte 9 Sur 0 -- -- 90
2020-03-26 02:00:00 5.8 0 Calma 3 Norte 0 -- -- 88
2020-03-26 01:00:00 6.6 0 Calma 4 Nordeste 0 -- -- 83
2020-03-26 00:00:00 6.1 0 Calma 3 Norte 0 -- -- 84
2020-03-25 23:00:00 5.9 0 Calma 4 Norte 0 -- -- 82
2020-03-25 22:00:00 6.7 2 Norte 4 Norte 0 -- -- 78
2020-03-25 21:00:00 7.6 2 Norte 8 Nordeste 0 -- -- 73
2020-03-25 20:00:00 8.2 3 Norte 6 Nordeste 0 -- -- 68
2020-03-25 19:00:00 10.8 3 Norte 16 Norte 0 -- -- 55
2020-03-25 18:00:00 11.9 3 Nordeste 18 Nordeste 0 -- -- 51
2020-03-25 17:00:00 13.3 11 Nordeste 27 Este 0 -- -- 47
2020-03-25 16:00:00 14.1 10 Nordeste 26 Norte 0 -- -- 45
2020-03-25 15:00:00 15.4 11 Nordeste 28 Este 0 -- -- 43
2020-03-25 14:00:00 13.9 16 Nordeste 39 Nordeste 0.2 -- -- 48
2020-03-25 13:00:00 15.1 10 Nordeste 23 Nordeste 0 -- -- 41
2020-03-25 12:00:00 14.4 10 Nordeste 25 Nordeste 0 -- -- 39
2020-03-25 11:00:00 14.4 7 Norte 23 Nordeste 0 -- -- 48
2020-03-25 10:00:00 12.4 8 Nordeste 19 Nordeste 0 -- -- 56
2020-03-25 09:00:00 8.6 0 Calma 18 Nordeste 0 -- -- 91
2020-03-25 08:00:00 7.9 12 Nordeste 40 Este 0.4 -- -- 85
2020-03-25 07:00:00 10.4 12 Nordeste 33 Nordeste 0 -- -- 66
2020-03-25 06:00:00 10.6 4 Nordeste 29 Nordeste 0 -- -- 55
2020-03-25 05:00:00 11 15 Norte 39 Nordeste 0 -- -- 56
2020-03-25 04:00:00 10.7 7 Nordeste 32 Norte 0 -- -- 55
2020-03-25 03:00:00 11 10 Norte 22 Este 0 -- -- 59
2020-03-25 02:00:00 11.1 11 Nordeste 31 Nordeste 0 -- -- 69
2020-03-25 01:00:00 10.8 8 Nordeste 27 Este 0 -- -- 72
2020-03-25 00:00:00 10.7 8 Nordeste 26 Este 0.4 -- -- 75
2020-03-24 23:00:00 11.9 11 Nordeste 34 Nordeste 0 -- -- 65
2020-03-24 22:00:00 11.9 10 Nordeste 35 Nordeste 0 -- -- 64
2020-03-24 21:00:00 12.3 12 Nordeste 37 Este 0 -- -- 63
2020-03-24 20:00:00 12.4 14 Nordeste 35 Nordeste 0 -- -- 61
2020-03-24 19:00:00 12.5 12 Nordeste 33 Este 0 -- -- 61
2020-03-24 18:00:00 13 14 Nordeste 40 Nordeste 0 -- -- 56
2020-03-24 17:00:00 14.9 16 Nordeste 38 Norte 0 -- -- 51
2020-03-24 16:00:00 15.2 15 Nordeste 38 Este 0 -- -- 52
2020-03-24 15:00:00 15.4 14 Nordeste 36 Nordeste 0 -- -- 55
2020-03-24 14:00:00 15.7 14 Nordeste 33 Nordeste 0 -- -- 65
2020-03-24 13:00:00 15.8 13 Nordeste 36 Este 0 -- -- 67
2020-03-24 12:00:00 18.1 10 Nordeste 41 Nordeste 0 -- -- 61
2020-03-24 11:00:00 17 15 Nordeste 38 Este 0 -- -- 63
2020-03-24 10:00:00 16.2 15 Nordeste 43 Norte 0 -- -- 68
2020-03-24 09:00:00 15.1 17 Nordeste 39 Este 0 -- -- 70
2020-03-24 08:00:00 14.2 15 Nordeste 37 Este 0 -- -- 76
2020-03-24 07:00:00 13.7 14 Nordeste 37 Nordeste 0 -- -- 78
2020-03-24 06:00:00 13.9 15 Nordeste 44 Nordeste 0 -- -- 81
2020-03-24 05:00:00 14 13 Nordeste 34 Nordeste 0 -- -- 82
2020-03-24 04:00:00 14.1 14 Nordeste 34 Este 0 -- -- 82
2020-03-24 03:00:00 14.4 13 Nordeste 36 Este 0 -- -- 84
2020-03-24 02:00:00 14.3 12 Nordeste 29 Nordeste 0 -- -- 84
2020-03-24 01:00:00 14.7 16 Nordeste 34 Este 0 -- -- 89
2020-03-24 00:00:00 14.6 8 Noroeste 27 Norte 0 -- -- 90
2020-03-23 23:00:00 14.6 6 Noroeste 27 Nordeste 0 -- -- 88
2020-03-23 22:00:00 14.6 10 Norte 31 Nordeste 0 -- -- 86
2020-03-23 21:00:00 14.8 10 Nordeste 28 Este 0 -- -- 86
2020-03-23 20:00:00 14.8 8 Nordeste 24 Nordeste 0 -- -- 86
2020-03-23 19:00:00 15.1 8 Nordeste 28 Este 0 -- -- 82
2020-03-23 18:00:00 16 10 Nordeste 26 Nordeste 0 -- -- 81
2020-03-23 17:00:00 17.6 13 Nordeste 40 Norte 0 -- -- 77
2020-03-23 16:00:00 18.2 14 Nordeste 31 Noroeste 0 -- -- 72
2020-03-23 15:00:00 18.6 10 Nordeste 30 Nordeste 0 -- -- 74
2020-03-23 14:00:00 19.2 13 Norte 30 Norte 0 -- -- 69
2020-03-23 13:00:00 19.8 9 Sudeste 29 Sudeste 0 -- -- 70
2020-03-23 12:00:00 19.6 12 Sudeste 26 Sudeste 0 -- -- 72
2020-03-23 11:00:00 19.5 8 Sudeste 22 Sudeste 0 -- -- 71
2020-03-23 10:00:00 18.2 3 Este 9 Este 0 -- -- 95
2020-03-23 09:00:00 14.5 0 Calma 2 Norte 0 -- -- --
2020-03-23 08:00:00 10.9 0 Calma 4 Norte 0 -- -- 100
2020-03-23 07:00:00 9.1 0 Calma 4 Norte 0 -- -- 100
2020-03-23 06:00:00 8.8 2 Nordeste 4 Norte 0 -- -- 100
2020-03-23 05:00:00 8.9 2 Norte 4 Norte 0 -- -- 100
2020-03-23 04:00:00 8.9 2 Norte 3 Norte 0 -- -- 100
2020-03-23 03:00:00 9.5 0 Calma 4 Norte 0 -- -- 100
2020-03-23 02:00:00 10.4 0 Calma -- -- 0 -- -- 100
2020-03-23 01:00:00 11 0 Calma 6 Sur 0 -- -- 100
2020-03-23 00:00:00 12.8 5 Sudeste 12 Este 0 -- -- 100
2020-03-22 23:00:00 11.2 3 Sudeste 7 Sudeste 0 -- -- 100
2020-03-22 22:00:00 10.7 0 Calma 4 Sudeste 0 -- -- 100
2020-03-22 21:00:00 11.7 0 Calma 4 Norte 0 -- -- 100
2020-03-22 20:00:00 12.9 0 Calma 7 Este 0 -- -- 99
2020-03-22 19:00:00 14.3 0 Calma 8 Sur 0 -- -- 90
2020-03-22 18:00:00 16.4 4 Sur 7 Sur 0 -- -- 78
2020-03-22 17:00:00 16.1 0 Calma 8 Sudeste 0 -- -- 81
2020-03-22 16:00:00 15.8 4 Sudeste 12 Sur 0 -- -- 89
2020-03-22 15:00:00 14.2 3 Este 9 Este 0.6 -- -- 100
2020-03-22 14:00:00 14.1 0 Calma 15 Sur 1 -- -- 99
2020-03-22 13:00:00 14.8 11 Sur 18 Sur 0.6 -- -- 95
2020-03-22 12:00:00 14.3 0 Calma 11 Sudoeste 0.2 -- -- 100
2020-03-22 11:00:00 14.2 3 Sudoeste 24 Sudeste 0.2 -- -- 100
2020-03-22 10:00:00 13.7 11 Norte 26 Sudeste 1.6 -- -- 100
2020-03-22 09:00:00 14.2 5 Sudeste 23 Sur 0.8 -- -- 100
2020-03-22 08:00:00 14 7 Nordeste 25 Nordeste 0.2 -- -- 100
2020-03-22 07:00:00 13.8 4 Nordeste 12 Norte 0 -- -- 100
2020-03-22 06:00:00 13.5 3 Norte 15 Norte 0 -- -- 100
2020-03-22 05:00:00 12.8 6 Norte 10 Norte 0 -- -- 100
2020-03-22 04:00:00 11.5 3 Norte 7 Nordeste 0 -- -- 100
2020-03-22 03:00:00 11.2 0 Calma 5 Norte 0 -- -- 100
2020-03-22 02:00:00 11.3 0 Calma 4 Nordeste 0 -- -- 100
2020-03-22 01:00:00 11.9 0 Calma 8 Este 0 -- -- 98
2020-03-22 00:00:00 12.6 3 Nordeste 9 Nordeste 0 -- -- 95
2020-03-21 23:00:00 14.2 3 Norte 10 Nordeste 0 -- -- 92
2020-03-21 22:00:00 14.1 3 Norte 10 Nordeste 0 -- -- 93
2020-03-21 21:00:00 14.6 3 Nordeste 13 Este 0 -- -- 90
2020-03-21 20:00:00 15 6 Nordeste 17 Nordeste 0 -- -- 86
2020-03-21 19:00:00 15.2 7 Nordeste 21 Este 0 -- -- 83
2020-03-21 18:00:00 16.1 9 Nordeste 23 Nordeste 0 -- -- 79
2020-03-21 17:00:00 17.7 8 Nordeste 23 Nordeste 0 -- -- 72
2020-03-21 16:00:00 17.5 5 Nordeste 18 Nordeste 0 -- -- 75
2020-03-21 15:00:00 16.9 10 Norte 25 Nordeste 0 -- -- 80
2020-03-21 14:00:00 16.8 10 Nordeste 23 Este 0 -- -- 77
2020-03-21 13:00:00 18.4 8 Norte 22 Nordeste 0 -- -- 75
2020-03-21 12:00:00 20 6 Norte 23 Nordeste 0 -- -- 65
2020-03-21 11:00:00 19.7 6 Norte 22 Nordeste 0 -- -- 65
2020-03-21 10:00:00 18.1 7 Nordeste 23 Este 0 -- -- 71
2020-03-21 09:00:00 16.1 6 Norte 17 Este 0 -- -- 84
2020-03-21 08:00:00 14.6 6 Norte 19 Norte 0 -- -- 90
2020-03-21 07:00:00 14.3 9 Nordeste 16 Nordeste 0 -- -- 91
2020-03-21 06:00:00 14 6 Nordeste 16 Nordeste 0 -- -- 89
2020-03-21 05:00:00 14 7 Norte 20 Norte 0 -- -- 88
2020-03-21 04:00:00 13.9 7 Norte 17 Nordeste 0 -- -- 86
2020-03-21 03:00:00 13.9 3 Norte 17 Norte 0 -- -- 85
2020-03-21 02:00:00 14.3 8 Nordeste 21 Este 0 -- -- 84
2020-03-21 01:00:00 14 7 Nordeste 23 Nordeste 0 -- -- 85
2020-03-21 00:00:00 14 9 Nordeste 21 Norte 0 -- -- 84
2020-03-20 23:00:00 14.1 7 Nordeste 26 Nordeste 0 -- -- 81
2020-03-20 22:00:00 14.2 8 Nordeste 22 Nordeste 0 -- -- 81
2020-03-20 21:00:00 14.3 10 Nordeste 25 Nordeste 0 -- -- 81
2020-03-20 20:00:00 14.4 8 Nordeste 20 Nordeste 0 -- -- 80
2020-03-20 19:00:00 15 11 Nordeste 23 Nordeste 0 -- -- 79
2020-03-20 18:00:00 15.7 9 Nordeste 23 Este 0 -- -- 75
2020-03-20 17:00:00 16.3 10 Nordeste 26 Este 0 -- -- 74
2020-03-20 16:00:00 16.6 10 Nordeste 26 Nordeste 0 -- -- 71
2020-03-20 15:00:00 16.8 14 Nordeste 32 Nordeste 0 -- -- 68
2020-03-20 14:00:00 18.3 12 Nordeste 31 Nordeste 0 -- -- 65
2020-03-20 13:00:00 17.7 14 Nordeste 31 Nordeste 0 -- -- 67
2020-03-20 12:00:00 18.7 6 Noroeste 29 Norte 0 -- -- 61
2020-03-20 11:00:00 17.7 7 Oeste 32 Norte 0 -- -- 66
2020-03-20 10:00:00 17.2 6 Oeste 22 Este 0 -- -- 69
2020-03-20 09:00:00 15.8 5 Sudoeste 28 Sudeste 0 -- -- 78
2020-03-20 08:00:00 14.3 12 Sudeste 26 Sur 0 -- -- 84
2020-03-20 07:00:00 13.8 4 Oeste 18 Norte 0 -- -- 86
2020-03-20 06:00:00 13.8 6 Norte 23 Norte 0 -- -- 85
2020-03-20 05:00:00 13.6 6 Sudeste 21 Sudeste 0 -- -- 81
2020-03-20 04:00:00 13.7 7 Sudeste 22 Sudeste 0 -- -- 86
2020-03-20 03:00:00 13.5 3 Noroeste 15 Sur 0 -- -- 85
2020-03-20 02:00:00 13.6 3 Oeste 19 Sur 0 -- -- 84
2020-03-20 01:00:00 13.7 6 Noroeste 19 Nordeste 0 -- -- 83
2020-03-20 00:00:00 13.7 5 Noroeste 16 Norte 0 -- -- 85
2020-03-19 23:00:00 13.1 5 Norte 18 Nordeste 0 -- -- 93
2020-03-19 22:00:00 11.9 0 Calma 4 Este 0 -- -- 91
2020-03-19 21:00:00 12.9 2 Este 13 Nordeste 0 -- -- 87
2020-03-19 20:00:00 13.8 5 Norte 21 Norte 0 -- -- 84
2020-03-19 19:00:00 14.2 12 Nordeste 23 Nordeste 0 -- -- 81
2020-03-19 18:00:00 15 11 Nordeste 24 Norte 0 -- -- 77
2020-03-19 17:00:00 16.8 7 Norte 25 Nordeste 0 -- -- 69
2020-03-19 16:00:00 17.7 7 Norte 24 Nordeste 0 -- -- 69
2020-03-19 15:00:00 16.8 8 Nordeste 25 Norte 0 -- -- 81
2020-03-19 14:00:00 18.6 6 Norte 23 Nordeste 0 -- -- 63
2020-03-19 13:00:00 18.5 6 Nordeste 23 Este 0 -- -- 64
2020-03-19 12:00:00 18.4 5 Norte 22 Sudeste 0 -- -- 66
2020-03-19 11:00:00 17.9 10 Este 23 Sudeste 0 -- -- 70
2020-03-19 10:00:00 15.6 4 Norte 22 Sur 0 -- -- 79
2020-03-19 09:00:00 14.8 9 Sudeste 21 Sudeste 0 -- -- 84
2020-03-19 08:00:00 13.8 10 Sudeste 21 Sudeste 0 -- -- 92
2020-03-19 07:00:00 13 2 Oeste 14 Nordeste 0 -- -- 100
2020-03-19 06:00:00 12.2 3 Norte 11 Norte 0 -- -- 100
2020-03-19 05:00:00 11.6 0 Calma 8 Sudoeste 0 -- -- 100
2020-03-19 04:00:00 10.6 0 Calma 6 Nordeste 0 -- -- 100
2020-03-19 03:00:00 10.3 0 Calma 3 Norte 0 -- -- 100
2020-03-19 02:00:00 10.7 2 Noroeste 4 Norte 0 -- -- 100
2020-03-19 01:00:00 11.8 0 Calma 4 Este 0 -- -- 100
2020-03-19 00:00:00 13.1 0 Calma 5 Sudeste 0 -- -- 100
2020-03-18 23:00:00 13.9 0 Calma 12 Este 0 -- -- 97
2020-03-18 22:00:00 14.2 4 Sudeste 15 Sur 0 -- -- 96
2020-03-18 21:00:00 14.3 4 Nordeste 13 Nordeste 0 -- -- 95
2020-03-18 20:00:00 14.4 7 Nordeste 16 Este 0 -- -- 93
2020-03-18 19:00:00 14.7 6 Nordeste 18 Este 0 -- -- 91
2020-03-18 18:00:00 15.2 8 Nordeste 18 Nordeste 0 -- -- 90
2020-03-18 17:00:00 15.8 7 Este 15 Este 0 -- -- 87
2020-03-18 16:00:00 16.5 5 Este 13 Este 0 -- -- 84
2020-03-18 15:00:00 17 8 Nordeste 18 Nordeste 0 -- -- 81
2020-03-18 14:00:00 18.2 4 Norte 15 Sur 0 -- -- 76
2020-03-18 13:00:00 18.1 5 Este 15 Este 0 -- -- 75
2020-03-18 12:00:00 17.7 4 Nordeste 17 Este 0 -- -- 75
2020-03-18 11:00:00 16.7 8 Nordeste 21 Este 0 -- -- 81
2020-03-18 10:00:00 15.9 5 Nordeste 14 Este 0 -- -- 85
2020-03-18 09:00:00 15 4 Nordeste 17 Nordeste 0 -- -- 88
2020-03-18 08:00:00 14.4 6 Norte 17 Norte 0 -- -- 90
2020-03-18 07:00:00 13.9 6 Norte 13 Norte 0 -- -- 90
2020-03-18 06:00:00 14.3 7 Nordeste 21 Nordeste 0 -- -- 86
2020-03-18 05:00:00 14.1 7 Norte 20 Norte 0 -- -- 89
2020-03-18 04:00:00 14 7 Norte 18 Norte 0 -- -- 90
2020-03-18 03:00:00 13.9 5 Norte 15 Nordeste 0 -- -- 89
2020-03-18 02:00:00 14.2 4 Nordeste 18 Nordeste 0 -- -- 90
2020-03-18 01:00:00 14.5 8 Norte 15 Norte 0 -- -- 90
2020-03-18 00:00:00 14.7 6 Norte 19 Norte 0 -- -- 86
2020-03-17 23:00:00 15.1 6 Norte 28 Este 0 -- -- 74
2020-03-17 22:00:00 15 9 Nordeste 27 Nordeste 0 -- -- 83
2020-03-17 21:00:00 15 9 Nordeste 23 Nordeste 0.2 -- -- 90
2020-03-17 20:00:00 15.1 6 Norte 19 Norte 0 -- -- 85
2020-03-17 19:00:00 15.3 5 Oeste 21 Sudoeste 0 -- -- 88
2020-03-17 18:00:00 15.6 12 Sur 33 Sudeste 0 -- -- 87
2020-03-17 17:00:00 16.1 10 Sur 37 Sur 0 -- -- 86
2020-03-17 16:00:00 16.7 12 Sur 28 Sudeste 0 -- -- 82
2020-03-17 15:00:00 17.3 10 Sur 27 Sudeste 0 -- -- 81
2020-03-17 14:00:00 16.9 6 Sudoeste 23 Noroeste 0 -- -- 85
2020-03-17 13:00:00 16.4 6 Sudoeste 28 Sudeste 0 -- -- 90
2020-03-17 12:00:00 16.1 8 Sudoeste 18 Sur 0 -- -- 92
2020-03-17 11:00:00 15.9 5 Oeste 18 Sudoeste 0 -- -- 94
2020-03-17 10:00:00 15.7 6 Sudoeste 17 Sudeste 0 -- -- 96
2020-03-17 09:00:00 15.6 8 Sudoeste 24 Sur 0 -- -- 98
2020-03-17 08:00:00 15.4 3 Noroeste 34 Nordeste 0 -- -- 100
2020-03-17 07:00:00 15.4 14 Nordeste 32 Este 0 -- -- 100
2020-03-17 06:00:00 15.1 11 Nordeste 24 Norte 0 -- -- 100
2020-03-17 05:00:00 15.2 5 Noroeste 21 Nordeste 0 -- -- 100
2020-03-17 04:00:00 15.2 6 Norte 24 Sudeste 0 -- -- 100
2020-03-17 03:00:00 15.1 14 Este 32 Sudeste 0 -- -- 100
2020-03-17 02:00:00 14.9 13 Sudeste 30 Sudeste 0 -- -- 100
2020-03-17 01:00:00 15.6 7 Sudeste 27 Sudeste 0 -- -- 98
2020-03-17 00:00:00 15.7 5 Noroeste 26 Sudeste 0 -- -- 96
2020-03-16 23:00:00 15.7 6 Sudeste 28 Sudeste 0 -- -- 97
2020-03-16 22:00:00 15.7 7 Sudoeste 30 Sudeste 0 -- -- 97
2020-03-16 21:00:00 15.9 16 Sudeste 30 Sudeste 0 -- -- 93
2020-03-16 20:00:00 15.9 10 Sudeste 28 Sudeste 0 -- -- 93
2020-03-16 19:00:00 16 10 Este 27 Sudeste 0 -- -- 93
2020-03-16 18:00:00 15.9 10 Sudeste 28 Sudeste 0 -- -- 95
2020-03-16 17:00:00 16.7 12 Este 22 Este 0 -- -- 86
2020-03-16 16:00:00 16.9 9 Este 27 Este 0 -- -- 86
2020-03-16 15:00:00 17 12 Este 32 Este 0 -- -- 85
2020-03-16 14:00:00 16.8 15 Este 26 Este 0 -- -- 86
2020-03-16 13:00:00 17.1 13 Este 28 Este 0 -- -- 85
2020-03-16 12:00:00 16.4 13 Sudeste 31 Sudeste 0 -- -- 89
2020-03-16 11:00:00 16.1 14 Sudeste 23 Sudeste 0 -- -- 95
2020-03-16 10:00:00 16.4 10 Sudeste 15 Sudeste 0 -- -- 97
2020-03-16 09:00:00 14.8 9 Sur 24 Sudeste 0.4 -- -- 99
2020-03-16 08:00:00 14.4 5 Sudeste 13 Sudeste 0.2 -- -- 95
2020-03-16 07:00:00 14.3 6 Sur 14 Sudoeste 0 -- -- 93
2020-03-16 06:00:00 14 6 Sur 13 Sur 0 -- -- 94
2020-03-16 05:00:00 14.5 9 Sudeste 34 Sudeste 0 -- -- 90
2020-03-16 04:00:00 14.1 9 Sudeste 26 Este 0 -- -- 91
2020-03-16 03:00:00 12.7 13 Sudeste 22 Sudeste 0 -- -- 100
2020-03-16 02:00:00 9.6 2 Norte 4 Norte 0 -- -- 100
2020-03-16 01:00:00 11.2 0 Calma 15 Sur 0 -- -- 93
2020-03-16 00:00:00 13.4 12 Sur 18 Sur 0 -- -- 94
2020-03-15 23:00:00 13.1 6 Sur 11 Sur 0 -- -- 95
2020-03-15 22:00:00 13.7 8 Sur 15 Sur 0 -- -- 90
2020-03-15 21:00:00 13.9 7 Sur 15 Sudeste 0 -- -- 92
2020-03-15 20:00:00 14.2 8 Sudeste 13 Sudeste 0 -- -- 86
2020-03-15 19:00:00 14.7 6 Norte 21 Nordeste 0 -- -- 85
2020-03-15 18:00:00 16.2 5 Norte 17 Norte 0 -- -- 73
2020-03-15 17:00:00 18.1 5 Sudoeste 26 Este 0 -- -- 67
2020-03-15 16:00:00 18.4 10 Nordeste 30 Este 0 -- -- 72
2020-03-15 15:00:00 18.9 13 Este 30 Norte 0 -- -- 69
2020-03-15 14:00:00 19.2 7 Nordeste 24 Nordeste 0 -- -- 68
2020-03-15 13:00:00 19 8 Nordeste 29 Nordeste 0 -- -- 69
2020-03-15 12:00:00 18.7 5 Este 17 Este 0 -- -- 65
2020-03-15 11:00:00 19 6 Sudeste 10 Sudeste 0 -- -- 66
2020-03-15 10:00:00 15.9 4 Sur 6 Sur 0 -- -- 81
2020-03-15 09:00:00 12.1 3 Norte 6 Sur 0 -- -- 100
2020-03-15 08:00:00 7.5 0 Calma 3 Norte 0 -- -- 100
2020-03-15 07:00:00 6.8 2 Norte 3 Norte 0 -- -- 100
2020-03-15 06:00:00 7.1 0 Calma 4 Norte 0 -- -- 100
2020-03-15 05:00:00 7.5 0 Calma 4 Norte 0 -- -- 100
2020-03-15 04:00:00 7.9 0 Calma 3 Noroeste 0 -- -- 100
2020-03-15 03:00:00 8.4 0 Calma 3 Nordeste 0 -- -- 100
2020-03-15 02:00:00 8.7 3 Nordeste 4 Nordeste 0 -- -- 100
2020-03-15 01:00:00 8.8 0 Calma 4 Nordeste 0 -- -- 100
2020-03-15 00:00:00 9.1 0 Calma 2 Norte 0 -- -- 100
2020-03-14 23:00:00 9.5 0 Calma 3 Norte 0 -- -- 99
2020-03-14 22:00:00 10.2 0 Calma 2 Norte 0 -- -- 96
2020-03-14 21:00:00 11.2 0 Calma 4 Este 0 -- -- 92
2020-03-14 20:00:00 13.1 2 Nordeste 7 Este 0 -- -- 86
2020-03-14 19:00:00 14.8 4 Este 13 Este 0 -- -- 81
2020-03-14 18:00:00 16.3 5 Norte 15 Norte 0 -- -- 74
2020-03-14 17:00:00 18.3 5 Norte 22 Norte 0 -- -- 67
2020-03-14 16:00:00 17.3 11 Norte 26 Norte 0 -- -- 73
2020-03-14 15:00:00 18.8 7 Norte 17 Este 0 -- -- 67
2020-03-14 14:00:00 20.6 6 Este 17 Este 0 -- -- 52
2020-03-14 13:00:00 19.2 5 Este 16 Sudeste 0 -- -- 55
2020-03-14 12:00:00 18.2 7 Este 22 Sudeste 0 -- -- 58
2020-03-14 11:00:00 17.9 9 Este 20 Sudeste 0 -- -- 60
2020-03-14 10:00:00 16.5 9 Sudeste 22 Sudeste 0 -- -- 64
2020-03-14 09:00:00 13.3 0 Calma 5 Oeste 0 -- -- 100
2020-03-14 08:00:00 11.6 0 Calma 6 Nordeste 0 -- -- 100
2020-03-14 07:00:00 10.3 3 Nordeste 4 Nordeste 0 -- -- 100
2020-03-14 06:00:00 10.7 0 Calma 5 Norte 0 -- -- 100
2020-03-14 05:00:00 10.7 0 Calma 4 Norte 0 -- -- 100
2020-03-14 04:00:00 11.1 0 Calma 4 Norte 0.2 -- -- 100
2020-03-14 03:00:00 11.4 3 Noroeste 6 Sudoeste 0.6 -- -- 93
2020-03-14 02:00:00 10.9 2 Nordeste 4 Nordeste 0 -- -- 82
2020-03-14 01:00:00 10.9 2 Norte 3 Nordeste 0 -- -- 83
2020-03-14 00:00:00 10.7 0 Calma 4 Nordeste 0 -- -- 87
2020-03-13 23:00:00 10.4 0 Calma 4 Noroeste 0 -- -- 91
2020-03-13 22:00:00 10.9 0 Calma 3 Norte 0 -- -- 90
2020-03-13 21:00:00 11.9 0 Calma 4 Este 0 -- -- 88
2020-03-13 20:00:00 12.9 2 Norte 10 Norte 0 -- -- 85
2020-03-13 19:00:00 13.9 5 Norte 15 Norte 0 -- -- 80
2020-03-13 18:00:00 15.3 6 Norte 18 Norte 0 -- -- 75
2020-03-13 17:00:00 17.1 8 Norte 21 Norte 0 -- -- 67
2020-03-13 16:00:00 17.9 6 Norte 23 Norte 0 -- -- 67
2020-03-13 15:00:00 19.5 7 Norte 23 Norte 0 -- -- 64
2020-03-13 14:00:00 19.6 10 Norte 22 Norte 0 -- -- 62
2020-03-13 13:00:00 19.6 12 Nordeste 27 Norte 0 -- -- 59
2020-03-13 12:00:00 16.4 13 Nordeste 29 Este 0 -- -- 100
2020-03-13 11:00:00 18.6 11 Nordeste 27 Nordeste 0 -- -- 67
2020-03-13 10:00:00 18 8 Nordeste 22 Sudeste 0 -- -- 72
2020-03-13 09:00:00 16.1 9 Nordeste 17 Nordeste 0 -- -- 82
2020-03-13 08:00:00 14.8 4 Norte 20 Este 0 -- -- 86
2020-03-13 07:00:00 14.6 6 Nordeste 20 Nordeste 0 -- -- 88
2020-03-13 06:00:00 14.7 10 Nordeste 20 Norte 0 -- -- 85
2020-03-13 05:00:00 14.1 10 Nordeste 22 Nordeste 0 -- -- 86
2020-03-13 04:00:00 12.7 2 Noroeste 15 Nordeste 0 -- -- 83
2020-03-13 03:00:00 14 7 Nordeste 20 Este 0 -- -- 100
2020-03-13 02:00:00 9.9 0 Calma 4 Norte 0 -- -- 86
2020-03-13 01:00:00 10.2 0 Calma 3 Sudeste 0 -- -- 80
2020-03-13 00:00:00 10.6 0 Calma 3 Norte 0 -- -- 78
2020-03-12 23:00:00 11.3 2 Norte 4 Norte 0 -- -- 77
2020-03-12 22:00:00 12.5 2 Norte 6 Sudeste 0 -- -- 75
2020-03-12 21:00:00 13.8 0 Calma 9 Sudeste 0 -- -- 73
2020-03-12 20:00:00 14.9 4 Este 8 Este 0 -- -- 70
2020-03-12 19:00:00 17.4 0 Calma 11 Norte 0 -- -- 72
2020-03-12 18:00:00 20.4 9 Norte 21 Norte 0 -- -- 46
2020-03-12 17:00:00 23 5 Norte 16 Este 0 -- -- 40
2020-03-12 16:00:00 24.2 9 Este 17 Este 0 -- -- 44
2020-03-12 15:00:00 26.2 4 Norte 18 Norte 0 -- -- 36
2020-03-12 14:00:00 26.3 5 Sur 11 Nordeste 0 -- -- 36
2020-03-12 13:00:00 25.7 3 Sur 11 Sur 0 -- -- 40
2020-03-12 12:00:00 23.9 4 Sudeste 10 Sudeste 0 -- -- 46
2020-03-12 11:00:00 19.1 4 Sur 8 Sur 0 -- -- 63
2020-03-12 10:00:00 15.7 3 Sur 6 Sur 0 -- -- 81
2020-03-12 09:00:00 12.8 0 Calma 5 Norte 0 -- -- 100
2020-03-12 08:00:00 8.7 0 Calma 3 Nordeste 0 -- -- 100
2020-03-12 07:00:00 8.7 0 Calma 3 Norte 0 -- -- 100
2020-03-12 06:00:00 9.4 0 Calma 4 Norte 0 -- -- 100
2020-03-12 05:00:00 9.5 0 Calma 2 Norte 0 -- -- 100
2020-03-12 04:00:00 10.3 0 Calma 4 Norte 0 -- -- 100
2020-03-12 03:00:00 11.2 0 Calma 4 Norte 0 -- -- 100
2020-03-12 02:00:00 10.1 0 Calma 3 Nordeste 0 -- -- 100
2020-03-12 01:00:00 9.9 0 Calma 3 Este 0 -- -- 100
2020-03-12 00:00:00 10.4 0 Calma 4 Norte 0 -- -- 99
2020-03-11 23:00:00 10.8 2 Nordeste 4 Nordeste 0 -- -- 97
2020-03-11 22:00:00 11.3 0 Calma 3 Norte 0 -- -- 95
2020-03-11 21:00:00 12.3 0 Calma 4 Norte 0 -- -- 92
2020-03-11 20:00:00 13.8 2 Norte 3 Norte 0 -- -- 86
2020-03-11 19:00:00 16.2 2 Norte 5 Este 0 -- -- 80
2020-03-11 18:00:00 17.9 2 Este 18 Este 0 -- -- 76
2020-03-11 17:00:00 20.1 7 Este 24 Este 0 -- -- 69
2020-03-11 16:00:00 21.4 10 Este 22 Este 0 -- -- 64
2020-03-11 15:00:00 22.1 8 Norte 17 Noroeste 0 -- -- 58
2020-03-11 14:00:00 24 4 Sur 9 Sudeste 0 -- -- 47
2020-03-11 13:00:00 22.2 4 Sudeste 9 Sur 0 -- -- 55
2020-03-11 12:00:00 20.2 4 Este 13 Este 0 -- -- 68
2020-03-11 11:00:00 18.8 5 Este 14 Este 0 -- -- 72
2020-03-11 10:00:00 17.2 4 Sudeste 9 Sudeste 0 -- -- 79
2020-03-11 09:00:00 12.8 0 Calma 3 Norte 0 -- -- 100
2020-03-11 08:00:00 7.8 0 Calma 3 Nordeste 0 -- -- 100
2020-03-11 07:00:00 7.8 0 Calma 4 Nordeste 0 -- -- 100
2020-03-11 06:00:00 7.8 3 Nordeste 4 Norte 0 -- -- 100
2020-03-11 05:00:00 8.2 3 Norte 5 Norte 0 -- -- 100
2020-03-11 04:00:00 8.6 3 Nordeste 5 Este 0 -- -- 100
2020-03-11 03:00:00 8.7 3 Norte 4 Norte 0 -- -- 98
2020-03-11 02:00:00 9.1 0 Calma 3 Norte 0 -- -- 98
2020-03-11 01:00:00 9.6 0 Calma 6 Este 0 -- -- 96
2020-03-11 00:00:00 10.1 3 Este 6 Este 0 -- -- 96